sensor_id;sensor_type;location;lat;lon;timestamp;temperature;humidity
8914;DHT22;4492;48.736;9.092;2022-12-07T00:01:03;2.30;99.90
8914;DHT22;4492;48.736;9.092;2022-12-07T00:03:29;2.20;99.90
8914;DHT22;4492;48.736;9.092;2022-12-07T00:05:57;2.20;99.90
8914;DHT22;4492;48.736;9.092;2022-12-07T00:08:23;2.20;99.90
8914;DHT22;4492;48.736;9.092;2022-12-07T00:10:48;2.20;99.90
8914;DHT22;4492;48.736;9.092;2022-12-07T00:13:14;2.20;99.90
8914;DHT22;4492;48.736;9.092;2022-12-07T00:15:39;2.20;99.90
8914;DHT22;4492;48.736;9.092;2022-12-07T00:18:05;2.20;99.90
8914;DHT22;4492;48.736;9.092;2022-12-07T00:20:31;2.20;99.90
8914;DHT22;4492;48.736;9.092;2022-12-07T00:22:56;2.30;99.90
8914;DHT22;4492;48.736;9.092;2022-12-07T00:25:22;2.30;99.90
8914;DHT22;4492;48.736;9.092;2022-12-07T00:27:48;2.40;99.90
8914;DHT22;4492;48.736;9.092;2022-12-07T00:30:13;2.40;99.90
8914;DHT22;4492;48.736;9.092;2022-12-07T00:32:39;2.30;99.90
8914;DHT22;4492;48.736;9.092;2022-12-07T00:35:05;2.30;99.90
8914;DHT22;4492;48.736;9.092;2022-12-07T00:37:30;2.30;99.90
8914;DHT22;4492;48.736;9.092;2022-12-07T00:39:56;2.30;99.90
8914;DHT22;4492;48.736;9.092;2022-12-07T00:42:21;2.30;99.90
8914;DHT22;4492;48.736;9.092;2022-12-07T00:44:47;2.20;99.90
8914;DHT22;4492;48.736;9.092;2022-12-07T00:47:12;2.20;99.90
8914;DHT22;4492;48.736;9.092;2022-12-07T00:49:38;2.20;99.90
8914;DHT22;4492;48.736;9.092;2022-12-07T00:52:03;2.20;99.90
8914;DHT22;4492;48.736;9.092;2022-12-07T00:54:29;2.20;99.90
8914;DHT22;4492;48.736;9.092;2022-12-07T00:56:54;2.20;99.90
8914;DHT22;4492;48.736;9.092;2022-12-07T00:59:20;2.10;99.90
8914;DHT22;4492;48.736;9.092;2022-12-07T01:01:46;2.10;99.90
8914;DHT22;4492;48.736;9.092;2022-12-07T01:04:11;2.10;99.90
8914;DHT22;4492;48.736;9.092;2022-12-07T01:06:38;2.10;99.90
8914;DHT22;4492;48.736;9.092;2022-12-07T01:09:04;2.00;99.90
8914;DHT22;4492;48.736;9.092;2022-12-07T01:11:30;2.00;99.90
8914;DHT22;4492;48.736;9.092;2022-12-07T01:13:58;2.00;99.90
8914;DHT22;4492;48.736;9.092;2022-12-07T01:16:25;2.00;99.90
8914;DHT22;4492;48.736;9.092;2022-12-07T01:18:53;2.00;99.90
8914;DHT22;4492;48.736;9.092;2022-12-07T01:21:24;2.00;99.90
8914;DHT22;4492;48.736;9.092;2022-12-07T01:23:51;2.00;99.90
8914;DHT22;4492;48.736;9.092;2022-12-07T01:26:20;2.00;99.90
8914;DHT22;4492;48.736;9.092;2022-12-07T01:28:46;2.00;99.90
8914;DHT22;4492;48.736;9.092;2022-12-07T01:31:14;2.00;99.90
8914;DHT22;4492;48.736;9.092;2022-12-07T01:33:41;1.90;99.90
8914;DHT22;4492;48.736;9.092;2022-12-07T01:36:16;1.90;99.90
8914;DHT22;4492;48.736;9.092;2022-12-07T01:38:43;1.90;99.90
8914;DHT22;4492;48.736;9.092;2022-12-07T01:41:09;1.90;99.90
8914;DHT22;4492;48.736;9.092;2022-12-07T01:43:35;2.00;99.90
8914;DHT22;4492;48.736;9.092;2022-12-07T01:46:02;2.00;99.90
8914;DHT22;4492;48.736;9.092;2022-12-07T01:48:37;1.90;99.90
8914;DHT22;4492;48.736;9.092;2022-12-07T01:51:08;1.90;99.90
8914;DHT22;4492;48.736;9.092;2022-12-07T01:53:36;1.90;99.90
8914;DHT22;4492;48.736;9.092;2022-12-07T01:56:03;1.90;99.90
8914;DHT22;4492;48.736;9.092;2022-12-07T01:58:30;1.90;99.90
8914;DHT22;4492;48.736;9.092;2022-12-07T02:00:56;1.90;99.90
8914;DHT22;4492;48.736;9.092;2022-12-07T02:03:25;1.90;99.90
8914;DHT22;4492;48.736;9.092;2022-12-07T02:05:53;1.90;99.90
8914;DHT22;4492;48.736;9.092;2022-12-07T02:08:20;1.80;99.90
8914;DHT22;4492;48.736;9.092;2022-12-07T02:10:46;1.80;99.90
8914;DHT22;4492;48.736;9.092;2022-12-07T02:13:23;1.80;99.90
8914;DHT22;4492;48.736;9.092;2022-12-07T02:18:41;1.90;99.90
8914;DHT22;4492;48.736;9.092;2022-12-07T02:21:34;1.90;99.90
8914;DHT22;4492;48.736;9.092;2022-12-07T02:27:02;1.80;99.90
8914;DHT22;4492;48.736;9.092;2022-12-07T02:30:09;1.80;99.90
8914;DHT22;4492;48.736;9.092;2022-12-07T02:35:19;1.80;99.90
8914;DHT22;4492;48.736;9.092;2022-12-07T02:37:51;1.80;99.90
8914;DHT22;4492;48.736;9.092;2022-12-07T02:40:39;1.80;99.90
8914;DHT22;4492;48.736;9.092;2022-12-07T02:43:14;1.80;99.90
8914;DHT22;4492;48.736;9.092;2022-12-07T02:45:42;1.80;99.90
8914;DHT22;4492;48.736;9.092;2022-12-07T02:48:12;1.70;99.90
8914;DHT22;4492;48.736;9.092;2022-12-07T02:50:38;1.70;99.90
8914;DHT22;4492;48.736;9.092;2022-12-07T02:53:04;1.70;99.90
8914;DHT22;4492;48.736;9.092;2022-12-07T02:55:38;1.70;99.90
8914;DHT22;4492;48.736;9.092;2022-12-07T03:00:54;1.70;99.90
8914;DHT22;4492;48.736;9.092;2022-12-07T03:03:24;1.70;99.90
8914;DHT22;4492;48.736;9.092;2022-12-07T03:06:00;1.70;99.90
8914;DHT22;4492;48.736;9.092;2022-12-07T03:08:44;1.70;99.90
8914;DHT22;4492;48.736;9.092;2022-12-07T03:11:40;1.70;99.90
8914;DHT22;4492;48.736;9.092;2022-12-07T03:14:25;1.60;99.90
8914;DHT22;4492;48.736;9.092;2022-12-07T03:17:04;1.70;99.90
8914;DHT22;4492;48.736;9.092;2022-12-07T03:19:32;1.60;99.90
8914;DHT22;4492;48.736;9.092;2022-12-07T03:22:13;1.70;99.90
8914;DHT22;4492;48.736;9.092;2022-12-07T03:24:54;1.60;99.90
8914;DHT22;4492;48.736;9.092;2022-12-07T03:27:24;1.70;99.90
8914;DHT22;4492;48.736;9.092;2022-12-07T03:30:37;1.70;99.90
8914;DHT22;4492;48.736;9.092;2022-12-07T03:33:04;1.70;99.90
8914;DHT22;4492;48.736;9.092;2022-12-07T03:38:34;1.60;99.90
8914;DHT22;4492;48.736;9.092;2022-12-07T03:41:11;1.60;99.90
8914;DHT22;4492;48.736;9.092;2022-12-07T03:43:37;1.60;99.90
8914;DHT22;4492;48.736;9.092;2022-12-07T03:49:12;1.60;99.90
8914;DHT22;4492;48.736;9.092;2022-12-07T03:54:37;1.60;99.90
8914;DHT22;4492;48.736;9.092;2022-12-07T03:57:05;1.60;99.90
8914;DHT22;4492;48.736;9.092;2022-12-07T03:59:33;1.60;99.90
8914;DHT22;4492;48.736;9.092;2022-12-07T04:02:03;1.60;99.90
8914;DHT22;4492;48.736;9.092;2022-12-07T04:04:29;1.60;99.90
8914;DHT22;4492;48.736;9.092;2022-12-07T04:06:55;1.50;99.90
8914;DHT22;4492;48.736;9.092;2022-12-07T04:09:21;1.50;99.90
8914;DHT22;4492;48.736;9.092;2022-12-07T04:11:47;1.50;99.90
8914;DHT22;4492;48.736;9.092;2022-12-07T04:14:13;1.50;99.90
8914;DHT22;4492;48.736;9.092;2022-12-07T04:16:48;1.50;99.90
8914;DHT22;4492;48.736;9.092;2022-12-07T04:19:14;1.50;99.90
8914;DHT22;4492;48.736;9.092;2022-12-07T04:21:40;1.40;99.90
8914;DHT22;4492;48.736;9.092;2022-12-07T04:24:06;1.40;99.90
8914;DHT22;4492;48.736;9.092;2022-12-07T04:26:32;1.40;99.90
8914;DHT22;4492;48.736;9.092;2022-12-07T04:28:57;1.40;99.90
8914;DHT22;4492;48.736;9.092;2022-12-07T04:31:23;1.40;99.90
8914;DHT22;4492;48.736;9.092;2022-12-07T04:33:48;1.40;99.90
8914;DHT22;4492;48.736;9.092;2022-12-07T04:36:14;1.50;99.90
8914;DHT22;4492;48.736;9.092;2022-12-07T04:38:40;1.50;99.90
8914;DHT22;4492;48.736;9.092;2022-12-07T04:41:07;1.50;99.90
8914;DHT22;4492;48.736;9.092;2022-12-07T04:43:33;1.50;99.90
8914;DHT22;4492;48.736;9.092;2022-12-07T04:45:59;1.50;99.90
8914;DHT22;4492;48.736;9.092;2022-12-07T04:48:24;1.40;99.90
8914;DHT22;4492;48.736;9.092;2022-12-07T04:50:50;1.40;99.90
8914;DHT22;4492;48.736;9.092;2022-12-07T04:53:15;1.40;99.90
8914;DHT22;4492;48.736;9.092;2022-12-07T04:55:41;1.30;99.90
8914;DHT22;4492;48.736;9.092;2022-12-07T04:58:07;1.30;99.90
8914;DHT22;4492;48.736;9.092;2022-12-07T05:00:32;1.20;99.90
8914;DHT22;4492;48.736;9.092;2022-12-07T05:02:58;1.20;99.90
8914;DHT22;4492;48.736;9.092;2022-12-07T05:05:24;1.20;99.90
8914;DHT22;4492;48.736;9.092;2022-12-07T05:07:50;1.20;99.90
8914;DHT22;4492;48.736;9.092;2022-12-07T05:10:16;1.20;99.90
8914;DHT22;4492;48.736;9.092;2022-12-07T05:12:41;1.20;99.90
8914;DHT22;4492;48.736;9.092;2022-12-07T05:15:07;1.20;99.90
8914;DHT22;4492;48.736;9.092;2022-12-07T05:17:33;1.20;99.90
8914;DHT22;4492;48.736;9.092;2022-12-07T05:19:58;1.20;99.90
8914;DHT22;4492;48.736;9.092;2022-12-07T05:22:24;1.20;99.90
8914;DHT22;4492;48.736;9.092;2022-12-07T05:24:53;1.10;99.90
8914;DHT22;4492;48.736;9.092;2022-12-07T05:27:19;1.10;99.90
8914;DHT22;4492;48.736;9.092;2022-12-07T05:29:45;1.00;99.90
8914;DHT22;4492;48.736;9.092;2022-12-07T05:32:10;1.00;99.90
8914;DHT22;4492;48.736;9.092;2022-12-07T05:34:36;1.00;99.90
8914;DHT22;4492;48.736;9.092;2022-12-07T05:37:01;0.90;99.90
8914;DHT22;4492;48.736;9.092;2022-12-07T05:39:27;0.80;99.90
8914;DHT22;4492;48.736;9.092;2022-12-07T05:41:52;0.80;99.90
8914;DHT22;4492;48.736;9.092;2022-12-07T05:44:36;0.80;99.90
8914;DHT22;4492;48.736;9.092;2022-12-07T05:47:02;0.70;99.90
8914;DHT22;4492;48.736;9.092;2022-12-07T05:49:27;0.70;99.90
8914;DHT22;4492;48.736;9.092;2022-12-07T05:51:53;0.60;99.90
8914;DHT22;4492;48.736;9.092;2022-12-07T05:54:19;0.60;99.90
8914;DHT22;4492;48.736;9.092;2022-12-07T05:56:52;0.60;99.90
8914;DHT22;4492;48.736;9.092;2022-12-07T05:59:17;0.60;99.90
8914;DHT22;4492;48.736;9.092;2022-12-07T06:01:53;0.60;99.90
8914;DHT22;4492;48.736;9.092;2022-12-07T06:04:20;0.50;99.90
8914;DHT22;4492;48.736;9.092;2022-12-07T06:06:46;0.50;99.90
8914;DHT22;4492;48.736;9.092;2022-12-07T06:09:12;0.50;99.90
8914;DHT22;4492;48.736;9.092;2022-12-07T06:11:39;0.40;99.90
8914;DHT22;4492;48.736;9.092;2022-12-07T06:14:23;0.40;99.90
8914;DHT22;4492;48.736;9.092;2022-12-07T06:16:49;0.50;99.90
8914;DHT22;4492;48.736;9.092;2022-12-07T06:19:14;0.60;99.90
8914;DHT22;4492;48.736;9.092;2022-12-07T06:21:40;0.70;99.90
8914;DHT22;4492;48.736;9.092;2022-12-07T06:24:06;0.70;99.90
8914;DHT22;4492;48.736;9.092;2022-12-07T06:26:32;0.70;99.90
8914;DHT22;4492;48.736;9.092;2022-12-07T06:28:57;0.70;99.90
8914;DHT22;4492;48.736;9.092;2022-12-07T06:31:23;0.70;99.90
8914;DHT22;4492;48.736;9.092;2022-12-07T06:33:48;0.70;99.90
8914;DHT22;4492;48.736;9.092;2022-12-07T06:36:14;0.80;99.90
8914;DHT22;4492;48.736;9.092;2022-12-07T06:38:40;0.80;99.90
8914;DHT22;4492;48.736;9.092;2022-12-07T06:41:06;0.90;99.90
8914;DHT22;4492;48.736;9.092;2022-12-07T06:43:32;0.90;99.90
8914;DHT22;4492;48.736;9.092;2022-12-07T06:45:57;0.90;99.90
8914;DHT22;4492;48.736;9.092;2022-12-07T06:48:23;0.90;99.90
8914;DHT22;4492;48.736;9.092;2022-12-07T06:50:48;0.90;99.90
8914;DHT22;4492;48.736;9.092;2022-12-07T06:53:14;0.90;99.90
8914;DHT22;4492;48.736;9.092;2022-12-07T06:55:40;0.90;99.90
8914;DHT22;4492;48.736;9.092;2022-12-07T06:58:05;1.00;99.90
8914;DHT22;4492;48.736;9.092;2022-12-07T07:00:31;1.00;99.90
8914;DHT22;4492;48.736;9.092;2022-12-07T07:02:56;1.00;99.90
8914;DHT22;4492;48.736;9.092;2022-12-07T07:05:22;0.90;99.90
8914;DHT22;4492;48.736;9.092;2022-12-07T07:07:49;0.90;99.90
8914;DHT22;4492;48.736;9.092;2022-12-07T07:10:15;0.90;99.90
8914;DHT22;4492;48.736;9.092;2022-12-07T07:12:40;0.90;99.90
8914;DHT22;4492;48.736;9.092;2022-12-07T07:15:06;0.90;99.90
8914;DHT22;4492;48.736;9.092;2022-12-07T07:17:32;0.90;99.90
8914;DHT22;4492;48.736;9.092;2022-12-07T07:19:57;0.90;99.90
8914;DHT22;4492;48.736;9.092;2022-12-07T07:22:23;1.00;99.90
8914;DHT22;4492;48.736;9.092;2022-12-07T07:24:48;1.00;99.90
8914;DHT22;4492;48.736;9.092;2022-12-07T07:27:14;1.00;99.90
8914;DHT22;4492;48.736;9.092;2022-12-07T07:29:39;1.10;99.90
8914;DHT22;4492;48.736;9.092;2022-12-07T07:32:05;1.10;99.90
8914;DHT22;4492;48.736;9.092;2022-12-07T07:34:30;1.10;99.90
8914;DHT22;4492;48.736;9.092;2022-12-07T07:36:56;1.20;99.90
8914;DHT22;4492;48.736;9.092;2022-12-07T07:39:21;1.20;99.90
8914;DHT22;4492;48.736;9.092;2022-12-07T07:41:47;1.20;99.90
8914;DHT22;4492;48.736;9.092;2022-12-07T07:44:12;1.30;99.90
8914;DHT22;4492;48.736;9.092;2022-12-07T07:46:38;1.30;99.90
8914;DHT22;4492;48.736;9.092;2022-12-07T07:49:04;1.30;99.90
8914;DHT22;4492;48.736;9.092;2022-12-07T07:51:29;1.30;99.90
8914;DHT22;4492;48.736;9.092;2022-12-07T07:53:55;1.40;99.90
8914;DHT22;4492;48.736;9.092;2022-12-07T07:56:21;1.40;99.90
8914;DHT22;4492;48.736;9.092;2022-12-07T07:58:46;1.50;99.90
8914;DHT22;4492;48.736;9.092;2022-12-07T08:01:12;1.50;99.90
8914;DHT22;4492;48.736;9.092;2022-12-07T08:03:39;1.50;99.90
8914;DHT22;4492;48.736;9.092;2022-12-07T08:06:05;1.50;99.90
8914;DHT22;4492;48.736;9.092;2022-12-07T08:08:32;1.60;99.90
8914;DHT22;4492;48.736;9.092;2022-12-07T08:10:57;1.60;99.90
8914;DHT22;4492;48.736;9.092;2022-12-07T08:13:26;1.70;99.90
8914;DHT22;4492;48.736;9.092;2022-12-07T08:15:51;1.70;99.90
8914;DHT22;4492;48.736;9.092;2022-12-07T08:18:17;1.80;99.90
8914;DHT22;4492;48.736;9.092;2022-12-07T08:20:43;1.80;99.90
8914;DHT22;4492;48.736;9.092;2022-12-07T08:23:09;1.90;99.90
8914;DHT22;4492;48.736;9.092;2022-12-07T08:25:35;1.90;99.90
8914;DHT22;4492;48.736;9.092;2022-12-07T08:28:01;2.00;99.90
8914;DHT22;4492;48.736;9.092;2022-12-07T08:30:28;2.00;99.90
8914;DHT22;4492;48.736;9.092;2022-12-07T08:32:55;2.10;99.90
8914;DHT22;4492;48.736;9.092;2022-12-07T08:35:21;2.10;99.90
8914;DHT22;4492;48.736;9.092;2022-12-07T08:37:46;2.10;99.90
8914;DHT22;4492;48.736;9.092;2022-12-07T08:40:13;2.20;99.90
8914;DHT22;4492;48.736;9.092;2022-12-07T08:42:44;2.20;99.90
8914;DHT22;4492;48.736;9.092;2022-12-07T08:45:11;2.30;99.90
8914;DHT22;4492;48.736;9.092;2022-12-07T08:47:40;2.40;99.90
8914;DHT22;4492;48.736;9.092;2022-12-07T08:50:08;2.40;99.90
8914;DHT22;4492;48.736;9.092;2022-12-07T08:52:35;2.40;99.90
8914;DHT22;4492;48.736;9.092;2022-12-07T08:55:01;2.50;99.90
8914;DHT22;4492;48.736;9.092;2022-12-07T08:57:28;2.60;99.90
8914;DHT22;4492;48.736;9.092;2022-12-07T08:59:55;2.60;99.90
8914;DHT22;4492;48.736;9.092;2022-12-07T09:02:20;2.70;99.90
8914;DHT22;4492;48.736;9.092;2022-12-07T09:04:46;2.80;99.90
8914;DHT22;4492;48.736;9.092;2022-12-07T09:07:12;2.70;99.90
8914;DHT22;4492;48.736;9.092;2022-12-07T09:09:37;2.70;99.90
8914;DHT22;4492;48.736;9.092;2022-12-07T09:12:03;2.80;99.90
8914;DHT22;4492;48.736;9.092;2022-12-07T09:14:29;2.80;99.90
8914;DHT22;4492;48.736;9.092;2022-12-07T09:16:55;2.90;99.90
8914;DHT22;4492;48.736;9.092;2022-12-07T09:19:20;2.90;99.90
8914;DHT22;4492;48.736;9.092;2022-12-07T09:21:46;3.00;99.90
8914;DHT22;4492;48.736;9.092;2022-12-07T09:24:12;3.10;99.90
8914;DHT22;4492;48.736;9.092;2022-12-07T09:26:38;3.10;99.90
8914;DHT22;4492;48.736;9.092;2022-12-07T09:29:05;3.20;99.90
8914;DHT22;4492;48.736;9.092;2022-12-07T09:31:31;3.30;99.90
8914;DHT22;4492;48.736;9.092;2022-12-07T09:33:58;3.30;99.90
8914;DHT22;4492;48.736;9.092;2022-12-07T09:36:24;3.20;99.90
8914;DHT22;4492;48.736;9.092;2022-12-07T09:38:50;3.30;99.90
8914;DHT22;4492;48.736;9.092;2022-12-07T09:41:16;3.40;99.90
8914;DHT22;4492;48.736;9.092;2022-12-07T09:43:42;3.50;99.90
8914;DHT22;4492;48.736;9.092;2022-12-07T09:46:13;3.50;99.90
8914;DHT22;4492;48.736;9.092;2022-12-07T09:48:40;3.60;99.90
8914;DHT22;4492;48.736;9.092;2022-12-07T09:53:44;3.70;99.90
8914;DHT22;4492;48.736;9.092;2022-12-07T09:56:15;3.70;99.90
8914;DHT22;4492;48.736;9.092;2022-12-07T09:58:42;3.70;99.90
8914;DHT22;4492;48.736;9.092;2022-12-07T10:03:36;3.90;99.90
8914;DHT22;4492;48.736;9.092;2022-12-07T10:06:04;4.00;99.90
8914;DHT22;4492;48.736;9.092;2022-12-07T10:08:30;4.00;99.90
8914;DHT22;4492;48.736;9.092;2022-12-07T10:10:56;4.00;99.90
8914;DHT22;4492;48.736;9.092;2022-12-07T10:13:35;3.90;99.90
8914;DHT22;4492;48.736;9.092;2022-12-07T10:16:01;3.90;99.90
8914;DHT22;4492;48.736;9.092;2022-12-07T10:18:38;4.00;99.90
8914;DHT22;4492;48.736;9.092;2022-12-07T10:23:42;4.00;99.90
8914;DHT22;4492;48.736;9.092;2022-12-07T10:26:27;4.10;99.90
8914;DHT22;4492;48.736;9.092;2022-12-07T10:28:55;4.10;99.90
8914;DHT22;4492;48.736;9.092;2022-12-07T10:31:22;4.10;99.90
8914;DHT22;4492;48.736;9.092;2022-12-07T10:34:01;4.20;99.90
8914;DHT22;4492;48.736;9.092;2022-12-07T10:36:35;4.30;99.90
8914;DHT22;4492;48.736;9.092;2022-12-07T10:39:11;4.50;99.90
8914;DHT22;4492;48.736;9.092;2022-12-07T10:42:02;4.50;99.90
8914;DHT22;4492;48.736;9.092;2022-12-07T10:44:33;4.60;99.90
8914;DHT22;4492;48.736;9.092;2022-12-07T10:52:38;4.80;99.90
8914;DHT22;4492;48.736;9.092;2022-12-07T11:14:19;5.00;99.90
8914;DHT22;4492;48.736;9.092;2022-12-07T11:17:35;5.10;99.90
8914;DHT22;4492;48.736;9.092;2022-12-07T11:22:55;5.10;99.90
8914;DHT22;4492;48.736;9.092;2022-12-07T11:28:18;5.00;99.90
8914;DHT22;4492;48.736;9.092;2022-12-07T11:30:57;4.90;99.90
8914;DHT22;4492;48.736;9.092;2022-12-07T11:33:46;4.80;99.90
8914;DHT22;4492;48.736;9.092;2022-12-07T11:41:42;4.60;99.90
8914;DHT22;4492;48.736;9.092;2022-12-07T11:47:16;4.60;99.90
8914;DHT22;4492;48.736;9.092;2022-12-07T11:50:15;4.60;99.90
8914;DHT22;4492;48.736;9.092;2022-12-07T11:52:48;4.60;99.90
8914;DHT22;4492;48.736;9.092;2022-12-07T11:56:03;4.60;99.90
8914;DHT22;4492;48.736;9.092;2022-12-07T11:58:51;4.80;99.90
8914;DHT22;4492;48.736;9.092;2022-12-07T12:06:33;4.90;99.90
8914;DHT22;4492;48.736;9.092;2022-12-07T12:09:30;4.90;99.90
8914;DHT22;4492;48.736;9.092;2022-12-07T12:23:27;4.70;99.90
8914;DHT22;4492;48.736;9.092;2022-12-07T12:26:00;4.60;99.90
8914;DHT22;4492;48.736;9.092;2022-12-07T12:31:16;4.50;99.90
8914;DHT22;4492;48.736;9.092;2022-12-07T12:33:56;4.50;99.90
8914;DHT22;4492;48.736;9.092;2022-12-07T12:39:11;4.50;99.90
8914;DHT22;4492;48.736;9.092;2022-12-07T12:46:58;4.10;99.90
8914;DHT22;4492;48.736;9.092;2022-12-07T12:54:38;3.80;99.90
8914;DHT22;4492;48.736;9.092;2022-12-07T12:57:08;3.70;99.90
8914;DHT22;4492;48.736;9.092;2022-12-07T13:02:35;3.60;99.90
8914;DHT22;4492;48.736;9.092;2022-12-07T13:15:49;4.00;99.90
8914;DHT22;4492;48.736;9.092;2022-12-07T13:26:22;4.10;99.90
8914;DHT22;4492;48.736;9.092;2022-12-07T13:34:02;4.00;99.90
8914;DHT22;4492;48.736;9.092;2022-12-07T13:36:34;4.00;99.90
8914;DHT22;4492;48.736;9.092;2022-12-07T13:41:42;4.00;99.90
8914;DHT22;4492;48.736;9.092;2022-12-07T13:44:09;4.00;99.90
8914;DHT22;4492;48.736;9.092;2022-12-07T13:47:05;4.10;99.90
8914;DHT22;4492;48.736;9.092;2022-12-07T13:49:37;3.90;99.90
8914;DHT22;4492;48.736;9.092;2022-12-07T13:53:13;3.90;99.90
8914;DHT22;4492;48.736;9.092;2022-12-07T13:55:17;3.90;99.90
8914;DHT22;4492;48.736;9.092;2022-12-07T13:57:45;3.90;99.90
8914;DHT22;4492;48.736;9.092;2022-12-07T14:03:25;3.70;99.90
8914;DHT22;4492;48.736;9.092;2022-12-07T14:06:07;3.60;99.90
8914;DHT22;4492;48.736;9.092;2022-12-07T14:08:32;3.70;99.90
8914;DHT22;4492;48.736;9.092;2022-12-07T14:10:59;3.70;99.90
8914;DHT22;4492;48.736;9.092;2022-12-07T14:13:45;3.60;99.90
8914;DHT22;4492;48.736;9.092;2022-12-07T14:16:24;3.60;99.90
8914;DHT22;4492;48.736;9.092;2022-12-07T14:18:55;3.60;99.90
8914;DHT22;4492;48.736;9.092;2022-12-07T14:21:23;3.60;99.90
8914;DHT22;4492;48.736;9.092;2022-12-07T14:24:18;3.60;99.90
8914;DHT22;4492;48.736;9.092;2022-12-07T14:26:46;3.60;99.90
8914;DHT22;4492;48.736;9.092;2022-12-07T14:29:28;3.50;99.90
8914;DHT22;4492;48.736;9.092;2022-12-07T14:31:56;3.40;99.90
8914;DHT22;4492;48.736;9.092;2022-12-07T14:34:22;3.30;99.90
8914;DHT22;4492;48.736;9.092;2022-12-07T14:36:47;3.40;99.90
8914;DHT22;4492;48.736;9.092;2022-12-07T14:39:13;3.30;99.90
8914;DHT22;4492;48.736;9.092;2022-12-07T14:41:38;3.40;99.90
8914;DHT22;4492;48.736;9.092;2022-12-07T14:44:20;3.40;99.90
8914;DHT22;4492;48.736;9.092;2022-12-07T14:46:47;3.30;99.90
8914;DHT22;4492;48.736;9.092;2022-12-07T14:49:14;3.30;99.90
8914;DHT22;4492;48.736;9.092;2022-12-07T14:51:40;3.30;99.90
8914;DHT22;4492;48.736;9.092;2022-12-07T14:54:15;3.20;99.90
8914;DHT22;4492;48.736;9.092;2022-12-07T14:56:41;3.20;99.90
8914;DHT22;4492;48.736;9.092;2022-12-07T14:59:09;3.20;99.90
8914;DHT22;4492;48.736;9.092;2022-12-07T15:01:35;3.20;99.90
8914;DHT22;4492;48.736;9.092;2022-12-07T15:04:00;3.10;99.90
8914;DHT22;4492;48.736;9.092;2022-12-07T15:06:26;3.10;99.90
8914;DHT22;4492;48.736;9.092;2022-12-07T15:08:51;3.10;99.90
8914;DHT22;4492;48.736;9.092;2022-12-07T15:11:18;3.10;99.90
8914;DHT22;4492;48.736;9.092;2022-12-07T15:13:43;3.10;99.90
8914;DHT22;4492;48.736;9.092;2022-12-07T15:16:27;3.10;99.90
8914;DHT22;4492;48.736;9.092;2022-12-07T15:18:53;3.10;99.90
8914;DHT22;4492;48.736;9.092;2022-12-07T15:21:19;3.00;99.90
8914;DHT22;4492;48.736;9.092;2022-12-07T15:23:46;3.00;99.90
8914;DHT22;4492;48.736;9.092;2022-12-07T15:26:12;2.90;99.90
8914;DHT22;4492;48.736;9.092;2022-12-07T15:28:39;3.00;99.90
8914;DHT22;4492;48.736;9.092;2022-12-07T15:31:11;2.80;99.90
8914;DHT22;4492;48.736;9.092;2022-12-07T15:33:37;2.90;99.90
8914;DHT22;4492;48.736;9.092;2022-12-07T15:36:02;2.90;99.90
8914;DHT22;4492;48.736;9.092;2022-12-07T15:38:28;2.90;99.90
8914;DHT22;4492;48.736;9.092;2022-12-07T15:40:55;2.80;99.90
8914;DHT22;4492;48.736;9.092;2022-12-07T15:43:21;2.80;99.90
8914;DHT22;4492;48.736;9.092;2022-12-07T15:46:22;2.80;99.90
8914;DHT22;4492;48.736;9.092;2022-12-07T15:48:47;2.80;99.90
8914;DHT22;4492;48.736;9.092;2022-12-07T15:51:13;2.70;99.90
8914;DHT22;4492;48.736;9.092;2022-12-07T15:53:39;2.60;99.90
8914;DHT22;4492;48.736;9.092;2022-12-07T15:56:08;2.60;99.90
8914;DHT22;4492;48.736;9.092;2022-12-07T15:58:34;2.50;99.90
8914;DHT22;4492;48.736;9.092;2022-12-07T16:00:59;2.50;99.90
8914;DHT22;4492;48.736;9.092;2022-12-07T16:03:26;2.50;99.90
8914;DHT22;4492;48.736;9.092;2022-12-07T16:05:52;2.50;99.90
8914;DHT22;4492;48.736;9.092;2022-12-07T16:08:18;2.40;99.90
8914;DHT22;4492;48.736;9.092;2022-12-07T16:10:44;2.40;99.90
8914;DHT22;4492;48.736;9.092;2022-12-07T16:13:11;2.40;99.90
8914;DHT22;4492;48.736;9.092;2022-12-07T16:15:40;2.40;99.90
8914;DHT22;4492;48.736;9.092;2022-12-07T16:18:06;2.40;99.90
8914;DHT22;4492;48.736;9.092;2022-12-07T16:20:32;2.30;99.90
8914;DHT22;4492;48.736;9.092;2022-12-07T16:22:58;2.30;99.90
8914;DHT22;4492;48.736;9.092;2022-12-07T16:25:23;2.30;99.90
8914;DHT22;4492;48.736;9.092;2022-12-07T16:27:51;2.20;99.90
8914;DHT22;4492;48.736;9.092;2022-12-07T16:30:16;2.20;99.90
8914;DHT22;4492;48.736;9.092;2022-12-07T16:32:42;2.10;99.90
8914;DHT22;4492;48.736;9.092;2022-12-07T16:35:09;2.00;99.90
8914;DHT22;4492;48.736;9.092;2022-12-07T16:37:34;2.00;99.90
8914;DHT22;4492;48.736;9.092;2022-12-07T16:40:00;2.00;99.90
8914;DHT22;4492;48.736;9.092;2022-12-07T16:42:26;1.90;99.90
8914;DHT22;4492;48.736;9.092;2022-12-07T16:44:52;1.70;99.90
8914;DHT22;4492;48.736;9.092;2022-12-07T16:47:17;1.60;99.90
8914;DHT22;4492;48.736;9.092;2022-12-07T16:49:43;1.50;99.90
8914;DHT22;4492;48.736;9.092;2022-12-07T16:52:09;1.50;99.90
8914;DHT22;4492;48.736;9.092;2022-12-07T16:54:35;1.50;99.90
8914;DHT22;4492;48.736;9.092;2022-12-07T16:57:01;1.50;99.90
8914;DHT22;4492;48.736;9.092;2022-12-07T16:59:26;1.50;99.90
8914;DHT22;4492;48.736;9.092;2022-12-07T17:01:52;1.50;99.90
8914;DHT22;4492;48.736;9.092;2022-12-07T17:04:17;1.50;99.90
8914;DHT22;4492;48.736;9.092;2022-12-07T17:06:43;1.40;99.90
8914;DHT22;4492;48.736;9.092;2022-12-07T17:09:09;1.30;99.90
8914;DHT22;4492;48.736;9.092;2022-12-07T17:11:35;1.30;99.90
8914;DHT22;4492;48.736;9.092;2022-12-07T17:14:01;1.30;99.90
8914;DHT22;4492;48.736;9.092;2022-12-07T17:16:46;1.20;99.90
8914;DHT22;4492;48.736;9.092;2022-12-07T17:19:13;1.10;99.90
8914;DHT22;4492;48.736;9.092;2022-12-07T17:21:42;1.10;99.90
8914;DHT22;4492;48.736;9.092;2022-12-07T17:24:10;1.00;99.90
8914;DHT22;4492;48.736;9.092;2022-12-07T17:26:36;1.00;99.90
8914;DHT22;4492;48.736;9.092;2022-12-07T17:29:04;1.00;99.90
8914;DHT22;4492;48.736;9.092;2022-12-07T17:31:29;1.00;99.90
8914;DHT22;4492;48.736;9.092;2022-12-07T17:33:55;1.10;99.90
8914;DHT22;4492;48.736;9.092;2022-12-07T17:36:26;1.10;99.90
8914;DHT22;4492;48.736;9.092;2022-12-07T17:38:52;1.20;99.90
8914;DHT22;4492;48.736;9.092;2022-12-07T17:41:20;1.20;99.90
8914;DHT22;4492;48.736;9.092;2022-12-07T17:44:07;1.30;99.90
8914;DHT22;4492;48.736;9.092;2022-12-07T17:46:33;1.30;99.90
8914;DHT22;4492;48.736;9.092;2022-12-07T17:48:59;1.40;99.90
8914;DHT22;4492;48.736;9.092;2022-12-07T17:51:25;1.40;99.90
8914;DHT22;4492;48.736;9.092;2022-12-07T17:54:10;1.40;99.90
8914;DHT22;4492;48.736;9.092;2022-12-07T17:56:36;1.40;99.90
8914;DHT22;4492;48.736;9.092;2022-12-07T17:59:02;1.50;99.90
8914;DHT22;4492;48.736;9.092;2022-12-07T18:01:27;1.50;99.90
8914;DHT22;4492;48.736;9.092;2022-12-07T18:03:53;1.50;99.90
8914;DHT22;4492;48.736;9.092;2022-12-07T18:06:19;1.50;99.90
8914;DHT22;4492;48.736;9.092;2022-12-07T18:08:44;1.50;99.90
8914;DHT22;4492;48.736;9.092;2022-12-07T18:11:10;1.50;99.90
8914;DHT22;4492;48.736;9.092;2022-12-07T18:13:36;1.70;99.90
8914;DHT22;4492;48.736;9.092;2022-12-07T18:18:28;1.60;99.90
8914;DHT22;4492;48.736;9.092;2022-12-07T18:20:54;1.60;99.90
8914;DHT22;4492;48.736;9.092;2022-12-07T18:23:20;1.60;99.90
8914;DHT22;4492;48.736;9.092;2022-12-07T18:25:49;1.60;99.90
8914;DHT22;4492;48.736;9.092;2022-12-07T18:28:15;1.60;99.90
8914;DHT22;4492;48.736;9.092;2022-12-07T18:30:43;1.50;99.90
8914;DHT22;4492;48.736;9.092;2022-12-07T18:33:19;1.60;99.90
8914;DHT22;4492;48.736;9.092;2022-12-07T18:35:46;1.40;99.90
8914;DHT22;4492;48.736;9.092;2022-12-07T18:38:16;1.40;99.90
8914;DHT22;4492;48.736;9.092;2022-12-07T18:40:43;1.30;99.90
8914;DHT22;4492;48.736;9.092;2022-12-07T18:43:09;1.30;99.90